Time;durP1;ratioP1;P1;durP2;ratioP2;P2;SDS_P1;SDS_P2;PMS_P1;PMS_P2;Temp;Humidity;BMP_temperature;BMP_pressure;BME280_temperature;BME280_humidity;BME280_pressure;Samples;Min_cycle;Max_cycle;Signal;HPM_P1;HPM_P2
2021/08/18 00:04:12;;;;;;;1999.90;999.90;;;;;;;17.68;63.05;100795.81;15838442;28;20036;-61
2021/08/18 00:11:46;;;;;;;1999.90;999.90;;;;;;;17.54;63.27;100797.22;15786367;28;20052;-61
2021/08/18 00:19:18;;;;;;;1999.90;999.90;;;;;;;17.38;64.09;100799.38;15811264;28;20055;-61
2021/08/18 00:26:52;;;;;;;1999.90;999.90;;;;;;;17.41;65.04;100811.91;15809508;28;20103;-61
2021/08/18 00:34:25;;;;;;;1999.90;999.90;;;;;;;17.11;66.43;100821.06;15832187;28;20051;-60
2021/08/18 00:41:59;;;;;;;1999.90;999.90;;;;;;;17.15;66.59;100818.28;15834947;28;20044;-60
2021/08/18 00:49:34;;;;;;;1999.90;999.90;;;;;;;17.28;65.79;100811.28;15809838;28;20072;-60
2021/08/18 00:57:08;;;;;;;1999.90;999.90;;;;;;;17.26;65.51;100802.38;15837594;28;20051;-59
2021/08/18 01:04:42;;;;;;;1999.90;999.90;;;;;;;17.12;65.38;100814.22;15820874;28;20123;-59
2021/08/18 01:12:15;;;;;;;;;;;;;;;17.40;64.29;100813.09;15815241;28;20412;-60
2021/08/18 01:19:48;;;;;;;1999.90;999.90;;;;;;;17.18;64.38;100809.91;15803147;28;20006;-59
2021/08/18 01:27:22;;;;;;;1999.90;999.90;;;;;;;17.13;64.23;100813.03;15826424;28;20384;-58
2021/08/18 01:34:56;;;;;;;1999.90;999.90;;;;;;;17.11;64.24;100812.59;15831641;28;20400;-61
2021/08/18 01:42:29;;;;;;;1999.90;999.90;;;;;;;17.45;63.10;100805.13;15830431;28;20181;-60
2021/08/18 01:50:03;;;;;;;1999.90;999.90;;;;;;;17.07;64.11;100805.25;15798453;28;20044;-60
2021/08/18 01:57:36;;;;;;;1999.90;999.90;;;;;;;17.12;63.90;100796.50;15836035;28;20047;-61
2021/08/18 02:05:12;;;;;;;1999.90;999.90;;;;;;;17.17;63.98;100790.53;15787788;28;20055;-59
2021/08/18 02:12:45;;;;;;;1999.90;999.90;;;;;;;17.13;63.97;100786.84;15817110;28;20399;-59
2021/08/18 02:20:22;;;;;;;1999.90;999.90;;;;;;;16.74;65.40;100779.28;15824681;28;20059;-60
2021/08/18 02:27:54;;;;;;;1999.90;999.90;;;;;;;17.02;64.86;100769.75;15828090;28;20119;-58
2021/08/18 02:35:28;;;;;;;1999.90;999.90;;;;;;;17.05;64.89;100785.91;15825887;28;20040;-60
2021/08/18 02:43:01;;;;;;;1999.90;999.90;;;;;;;16.69;66.04;100776.81;15818955;28;20094;-58
2021/08/18 02:50:35;;;;;;;1999.90;999.90;;;;;;;16.92;65.46;100778.81;15809165;28;20039;-60
2021/08/18 02:58:08;;;;;;;1999.90;999.90;;;;;;;16.92;65.25;100776.81;15830044;28;20040;-60
2021/08/18 03:05:42;;;;;;;1999.90;999.90;;;;;;;16.69;65.97;100770.34;15830977;28;20520;-60
2021/08/18 03:13:15;;;;;;;1999.90;999.90;;;;;;;16.93;65.34;100775.63;15799329;28;20044;-60
2021/08/18 03:20:49;;;;;;;1999.90;999.90;;;;;;;16.72;65.59;100773.22;15793048;28;20440;-61
2021/08/18 03:28:21;;;;;;;1999.90;999.90;;;;;;;16.70;65.79;100775.59;15786832;28;20044;-60
2021/08/18 03:35:55;;;;;;;1999.90;999.90;;;;;;;16.78;65.70;100775.72;15803820;22;20040;-54
2021/08/18 03:43:28;;;;;;;1999.90;999.90;;;;;;;16.49;66.48;100775.16;15781253;28;20094;-55
2021/08/18 03:51:02;;;;;;;1999.90;999.90;;;;;;;16.58;66.21;100783.38;15744976;28;20060;-56
2021/08/18 03:58:34;;;;;;;1999.90;999.90;;;;;;;16.53;66.37;100781.66;15780053;28;20040;-57
2021/08/18 04:06:08;;;;;;;1999.90;999.90;;;;;;;16.66;66.08;100797.22;15774979;28;20127;-54
2021/08/18 04:13:41;;;;;;;1999.90;999.90;;;;;;;16.78;65.87;100792.63;15759859;28;20079;-56
2021/08/18 04:21:14;;;;;;;1999.90;999.90;;;;;;;16.77;65.90;100791.81;15713364;28;20053;-56
2021/08/18 04:28:47;;;;;;;1999.90;999.90;;;;;;;16.66;66.38;100799.22;15732995;28;20134;-57
2021/08/18 04:36:21;;;;;;;1999.90;999.90;;;;;;;16.54;67.11;100800.19;15776703;28;20054;-53
2021/08/18 04:43:55;;;;;;;1999.90;999.90;;;;;;;16.66;66.42;100808.47;15749982;28;20656;-54
2021/08/18 04:51:37;;;;;;;1999.90;999.90;;;;;;;16.94;65.69;100808.25;15758275;28;20032;-55
2021/08/18 04:59:09;;;;;;;1999.90;999.90;;;;;;;16.94;65.56;100816.72;15774768;28;20128;-54
2021/08/18 05:06:43;;;;;;;1999.90;999.90;;;;;;;17.00;64.83;100820.88;15773149;28;20059;-55
2021/08/18 05:14:15;;;;;;;;;;;;;;;16.94;64.83;100835.63;15788070;28;20098;-58
2021/08/18 05:21:48;;;;;;;1999.90;999.90;;;;;;;16.88;64.89;100835.13;15765747;28;19920;-57
2021/08/18 05:29:20;;;;;;;1999.90;999.90;;;;;;;16.82;64.64;100839.44;15760118;28;20392;-58
2021/08/18 05:36:56;;;;;;;1999.90;999.90;;;;;;;16.82;64.43;100836.63;15778809;28;20048;-59
2021/08/18 05:44:28;;;;;;;1999.90;999.90;;;;;;;16.82;64.55;100828.16;15780459;28;20037;-59
2021/08/18 05:52:01;;;;;;;1999.90;999.90;;;;;;;16.92;64.48;100838.81;15766076;28;20048;-56
2021/08/18 05:59:33;;;;;;;1999.90;999.90;;;;;;;16.62;65.07;100844.22;15738521;28;20045;-57
2021/08/18 06:07:07;;;;;;;1999.90;999.90;;;;;;;17.41;63.33;100851.41;15739305;28;20485;-57
2021/08/18 06:14:39;;;;;;;1999.90;999.90;;;;;;;17.36;63.12;100849.69;15737874;28;20094;-57
2021/08/18 06:22:14;;;;;;;;;;;;;;;18.10;61.69;100844.47;15711345;28;20052;-58
2021/08/18 06:29:46;;;;;;;;;;;;;;;18.59;60.54;100839.88;15676187;28;19921;-55
2021/08/18 06:37:20;;;;;;;1999.90;999.90;;;;;;;18.65;60.65;100833.56;15675220;28;19920;-56
2021/08/18 06:44:52;;;;;;;1999.90;999.90;;;;;;;19.42;59.52;100829.09;15674592;28;20048;-55
2021/08/18 06:52:25;;;;;;;1999.90;999.90;;;;;;;19.74;58.04;100834.25;15672687;28;20049;-56
2021/08/18 06:59:58;;;;;;;1999.90;999.90;;;;;;;20.16;57.46;100823.19;15730354;28;20451;-58
2021/08/18 07:07:31;;;;;;;1999.90;999.90;;;;;;;20.22;56.32;100814.31;15731031;28;20048;-57
2021/08/18 07:15:05;;;;;;;1999.90;999.90;;;;;;;20.13;57.07;100820.34;15734023;28;20072;-56
2021/08/18 07:22:39;;;;;;;1999.90;999.90;;;;;;;21.13;54.91;100820.75;15733516;28;20463;-56
2021/08/18 07:30:12;;;;;;;1999.90;999.90;;;;;;;20.49;55.42;100820.56;15723216;28;20056;-53
2021/08/18 07:37:45;;;;;;;;;;;;;;;20.12;55.81;100818.75;15745987;28;20136;-58
2021/08/18 07:45:18;;;;;;;1999.90;999.90;;;;;;;19.28;57.33;100832.63;15745149;28;19920;-58
2021/08/18 07:52:51;;;;;;;1999.90;999.90;;;;;;;19.51;56.57;100838.06;15744867;28;20052;-51
2021/08/18 08:00:24;;;;;;;1999.90;999.90;;;;;;;20.37;56.33;100825.34;15743549;28;20037;-54
2021/08/18 08:07:57;;;;;;;1999.90;999.90;;;;;;;20.55;54.41;100813.31;15743059;28;20120;-55
2021/08/18 08:15:30;;;;;;;1999.90;999.90;;;;;;;20.54;55.62;100820.19;15725716;28;20072;-56
2021/08/18 08:23:03;;;;;;;1999.90;999.90;;;;;;;20.79;55.38;100814.59;15741504;28;20072;-57
2021/08/18 08:30:35;;;;;;;1999.90;999.90;;;;;;;20.72;54.81;100813.34;15740845;28;20509;-52
2021/08/18 08:38:09;;;;;;;1999.90;999.90;;;;;;;20.96;55.08;100811.81;15739459;28;20052;-54
2021/08/18 08:45:46;;;;;;;1999.90;999.90;;;;;;;20.65;56.21;100824.69;15738868;28;20074;-52
2021/08/18 08:53:19;;;;;;;1999.90;999.90;;;;;;;20.40;55.30;100807.53;15738754;28;20056;-55
2021/08/18 09:00:52;;;;;;;1999.90;999.90;;;;;;;20.56;56.44;100806.44;15738579;28;20053;-55
2021/08/18 09:08:26;;;;;;;;;;;;;;;20.26;55.94;100815.16;15735430;28;20037;-53
2021/08/18 09:16:04;;;;;;;1999.90;999.90;;;;;;;20.45;57.50;100814.88;15736440;28;19942;-57
2021/08/18 09:23:38;;;;;;;1999.90;999.90;;;;;;;19.96;58.43;100812.56;15736574;28;20086;-58
2021/08/18 09:31:25;;;;;;;1999.90;999.90;;;;;;;19.48;59.81;100818.22;15747083;22;20043;-74
2021/08/18 09:39:18;;;;;;;1999.90;999.90;;;;;;;20.25;58.77;100805.84;15781065;28;20380;-73
2021/08/18 09:47:04;;;;;;;1999.90;999.90;;;;;;;20.62;58.40;100799.94;15799110;28;20055;-73
2021/08/18 09:54:38;;;;;;;1999.90;999.90;;;;;;;20.22;57.07;100798.16;15777989;22;20118;-59
2021/08/18 10:02:11;;;;;;;1999.90;999.90;;;;;;;21.09;56.66;100785.91;15692268;28;20114;-55
2021/08/18 10:09:45;;;;;;;1999.90;999.90;;;;;;;22.35;53.85;100771.19;15644482;28;20768;-56
2021/08/18 10:17:17;;;;;;;1999.90;999.90;;;;;;;23.52;48.78;100772.47;15680536;28;20041;-55
2021/08/18 10:24:50;;;;;;;1999.90;999.90;;;;;;;22.70;51.20;100765.31;15611272;28;20073;-58
2021/08/18 10:32:36;;;;;;;1999.90;999.90;;;;;;;24.11;48.22;100766.63;15595064;28;20104;-58
2021/08/18 10:40:14;;;;;;;1999.90;999.90;;;;;;;23.97;46.20;100759.06;15620868;28;20087;-60
2021/08/18 10:47:46;;;;;;;1999.90;999.90;;;;;;;23.63;48.07;100770.38;15629707;28;20149;-55
2021/08/18 10:55:30;;;;;;;1999.90;999.90;;;;;;;24.28;47.33;100764.78;15661453;28;20571;-59
2021/08/18 11:03:04;;;;;;;1999.90;999.90;;;;;;;25.07;44.97;100756.81;15658012;28;20470;-59
2021/08/18 11:10:40;;;;;;;1999.90;999.90;;;;;;;23.68;47.48;100750.00;15592872;28;20045;-57
2021/08/18 11:18:16;;;;;;;1999.90;999.90;;;;;;;23.15;49.19;100751.25;15592069;28;20502;-61
2021/08/18 11:25:50;;;;;;;1999.90;999.90;;;;;;;22.23;48.17;100741.19;15663933;28;20531;-60
2021/08/18 11:33:23;;;;;;;1999.90;999.90;;;;;;;22.52;47.45;100746.75;15667438;28;20493;-60
2021/08/18 11:40:56;;;;;;;;;;;;;;;21.89;48.36;100749.41;15673784;28;20051;-61
2021/08/18 11:48:31;;;;;;;1999.90;999.90;;;;;;;22.59;47.41;100743.84;15708722;28;19928;-59
2021/08/18 11:56:07;;;;;;;1999.90;999.90;;;;;;;23.42;46.21;100739.22;15711832;28;20045;-59
2021/08/18 12:03:39;;;;;;;1999.90;999.90;;;;;;;22.32;47.13;100737.91;15667254;28;20044;-60
2021/08/18 12:11:13;;;;;;;1999.90;999.90;;;;;;;21.87;49.06;100754.66;15670544;28;20053;-57
2021/08/18 12:18:45;;;;;;;1999.90;999.90;;;;;;;21.37;49.93;100756.78;15679128;28;20037;-60
2021/08/18 12:26:27;;;;;;;1999.90;999.90;;;;;;;21.57;50.92;100758.78;15665122;28;20478;-61
2021/08/18 12:34:08;;;;;;;1999.90;999.90;;;;;;;22.49;51.42;100768.25;15679640;28;20049;-60
2021/08/18 12:41:43;;;;;;;1999.90;999.90;;;;;;;22.03;50.26;100765.59;15631086;28;20069;-59
2021/08/18 12:49:29;;;;;;;1999.90;999.90;;;;;;;21.50;52.05;100763.66;15599621;28;20049;-58
2021/08/18 12:57:06;;;;;;;1999.90;999.90;;;;;;;21.73;52.33;100774.56;15668741;28;20401;-60
2021/08/18 13:04:38;;;;;;;1999.90;999.90;;;;;;;22.37;51.90;100751.69;15677337;28;20041;-60
2021/08/18 13:12:13;;;;;;;1999.90;999.90;;;;;;;22.74;49.78;100749.06;15617654;28;20045;-62
2021/08/18 13:19:45;;;;;;;1999.90;999.90;;;;;;;22.26;51.42;100748.06;15623265;28;20072;-61
2021/08/18 13:27:19;;;;;;;1999.90;999.90;;;;;;;22.53;51.53;100737.00;15614999;28;20045;-60
2021/08/18 13:34:52;;;;;;;1999.90;999.90;;;;;;;22.78;51.26;100731.94;15580602;28;20057;-59
2021/08/18 13:42:26;;;;;;;1999.90;999.90;;;;;;;22.40;51.73;100714.69;15651097;28;20517;-60
2021/08/18 13:49:58;;;;;;;1999.90;999.90;;;;;;;22.65;52.64;100717.41;15674973;28;20049;-57
2021/08/18 13:57:34;;;;;;;1999.90;999.90;;;;;;;22.13;52.63;100719.31;15674449;28;20579;-59
2021/08/18 14:05:06;;;;;;;1999.90;999.90;;;;;;;22.02;53.12;100729.88;15674181;28;20516;-58
2021/08/18 14:12:40;;;;;;;;;;;;;;;22.21;52.69;100723.75;15656558;28;20389;-57
2021/08/18 14:20:13;;;;;;;1999.90;999.90;;;;;;;22.16;53.12;100727.00;15645305;28;19936;-61
2021/08/18 14:27:47;;;;;;;1999.90;999.90;;;;;;;22.10;53.13;100725.81;15592831;28;20037;-59
2021/08/18 14:35:19;;;;;;;1999.90;999.90;;;;;;;21.70;53.71;100727.94;15609571;28;20049;-58
2021/08/18 14:42:53;;;;;;;1999.90;999.90;;;;;;;21.68;54.69;100738.88;15651565;28;20045;-61
2021/08/18 14:50:25;;;;;;;1999.90;999.90;;;;;;;21.45;54.81;100736.47;15673585;28;20151;-61
2021/08/18 14:58:03;;;;;;;1999.90;999.90;;;;;;;21.25;55.14;100741.72;15655247;28;20452;-60
2021/08/18 15:05:36;;;;;;;1999.90;999.90;;;;;;;21.26;55.63;100739.75;15675388;28;20048;-61
2021/08/18 15:13:09;;;;;;;1999.90;999.90;;;;;;;21.37;55.91;100731.22;15680352;28;20530;-61
2021/08/18 15:20:41;;;;;;;1999.90;999.90;;;;;;;21.82;55.45;100721.81;15656058;28;20049;-61
2021/08/18 15:28:15;;;;;;;1999.90;999.90;;;;;;;22.30;54.66;100726.13;15671608;28;20045;-57
2021/08/18 15:35:51;;;;;;;1999.90;999.90;;;;;;;21.85;55.25;100714.50;15805707;22;20048;-59
2021/08/18 15:43:26;;;;;;;1999.90;999.90;;;;;;;22.02;54.84;100724.19;15802331;28;20052;-60
2021/08/18 15:50:59;;;;;;;1999.90;999.90;;;;;;;22.16;54.28;100715.63;15809287;28;20126;-60
2021/08/18 15:58:33;;;;;;;1999.90;999.90;;;;;;;22.38;54.84;100724.88;15795677;28;20055;-59
2021/08/18 16:06:05;;;;;;;1999.90;999.90;;;;;;;21.83;55.13;100719.78;15794061;28;20125;-60
2021/08/18 16:13:39;;;;;;;1999.90;999.90;;;;;;;21.81;54.77;100723.03;15812655;28;20125;-56
2021/08/18 16:21:11;;;;;;;1999.90;999.90;;;;;;;21.66;55.63;100706.41;15794535;28;20487;-60
2021/08/18 16:28:45;;;;;;;1999.90;999.90;;;;;;;21.69;55.15;100703.59;15714315;28;20040;-59
2021/08/18 16:36:17;;;;;;;1999.90;999.90;;;;;;;21.83;54.55;100688.53;15747205;28;20062;-58
2021/08/18 16:43:51;;;;;;;1999.90;999.90;;;;;;;21.99;54.58;100686.06;15748167;28;20544;-59
2021/08/18 16:51:23;;;;;;;1999.90;999.90;;;;;;;21.96;55.14;100674.69;15768885;28;20036;-56
2021/08/18 16:58:57;;;;;;;1999.90;999.90;;;;;;;21.74;54.67;100686.13;15791380;28;20077;-58
2021/08/18 17:06:29;;;;;;;1999.90;999.90;;;;;;;21.98;54.07;100677.91;15796872;28;20404;-61
2021/08/18 17:14:03;;;;;;;1999.90;999.90;;;;;;;22.07;53.87;100661.28;15794661;28;20150;-63
2021/08/18 17:21:36;;;;;;;1999.90;999.90;;;;;;;22.15;54.05;100660.03;15773399;28;20051;-58
2021/08/18 17:29:10;;;;;;;1999.90;999.90;;;;;;;22.15;53.94;100666.50;15792366;28;20040;-60
2021/08/18 17:36:43;;;;;;;1999.90;999.90;;;;;;;22.03;54.08;100649.09;15791073;28;20141;-60
2021/08/18 17:44:16;;;;;;;1999.90;999.90;;;;;;;21.78;54.49;100663.38;15808855;28;20048;-60
2021/08/18 17:51:48;;;;;;;1999.90;999.90;;;;;;;21.55;54.58;100664.66;15788485;28;20100;-58
2021/08/18 17:59:23;;;;;;;1999.90;999.90;;;;;;;21.41;54.55;100669.56;15806486;28;20058;-59
2021/08/18 18:06:57;;;;;;;1999.90;999.90;;;;;;;21.37;54.38;100672.44;15787549;28;20052;-59
2021/08/18 18:14:31;;;;;;;1999.90;999.90;;;;;;;21.58;53.73;100680.91;15763276;28;20040;-60
2021/08/18 18:22:05;;;;;;;1999.90;999.90;;;;;;;21.47;54.27;100691.47;15771558;28;20146;-61
2021/08/18 18:29:38;;;;;;;1999.90;999.90;;;;;;;21.29;54.63;100697.16;15769194;28;20501;-61
2021/08/18 18:37:11;;;;;;;1999.90;999.90;;;;;;;21.35;54.93;100696.75;15802514;28;20040;-60
2021/08/18 18:44:45;;;;;;;1999.90;999.90;;;;;;;21.18;54.62;100702.00;15784680;28;20063;-61
2021/08/18 18:52:18;;;;;;;1999.90;999.90;;;;;;;21.27;54.92;100695.97;15801782;28;20035;-60
2021/08/18 18:59:51;;;;;;;1999.90;999.90;;;;;;;21.20;54.97;100699.56;15796885;28;20423;-60
2021/08/18 19:07:23;;;;;;;1999.90;999.90;;;;;;;21.22;54.65;100688.63;15735496;28;20063;-61
2021/08/18 19:14:57;;;;;;;1999.90;999.90;;;;;;;21.37;54.83;100692.31;15787452;28;20052;-62
2021/08/18 19:22:29;;;;;;;1999.90;999.90;;;;;;;21.24;55.12;100683.34;15766742;28;20051;-60
2021/08/18 19:30:04;;;;;;;1999.90;999.90;;;;;;;21.24;54.81;100679.69;15794157;28;20044;-62
2021/08/18 19:37:37;;;;;;;1999.90;999.90;;;;;;;21.37;54.46;100675.28;15760370;28;20048;-63
2021/08/18 19:45:12;;;;;;;;;;;;;;;21.39;54.36;100672.81;15781948;28;20040;-60
2021/08/18 19:52:44;;;;;;;1999.90;999.90;;;;;;;21.13;54.55;100665.53;15826977;28;19920;-60
2021/08/18 20:00:18;;;;;;;1999.90;999.90;;;;;;;21.18;54.08;100665.13;15831251;28;20422;-60
2021/08/18 20:07:50;;;;;;;1999.90;999.90;;;;;;;21.12;54.72;100665.94;15828357;28;20761;-58
2021/08/18 20:15:24;;;;;;;1999.90;999.90;;;;;;;21.13;53.90;100657.00;15842811;28;20059;-58
2021/08/18 20:22:56;;;;;;;1999.90;999.90;;;;;;;21.00;54.37;100655.81;15830796;28;20055;-60
2021/08/18 20:30:30;;;;;;;1999.90;999.90;;;;;;;21.07;54.20;100655.81;15834256;28;20072;-58
2021/08/18 20:38:03;;;;;;;1999.90;999.90;;;;;;;21.04;53.99;100645.25;15816324;28;20543;-59
2021/08/18 20:45:37;;;;;;;1999.90;999.90;;;;;;;21.03;54.30;100644.44;15805973;28;20493;-60
2021/08/18 20:53:09;;;;;;;1999.90;999.90;;;;;;;20.63;54.96;100653.34;15719626;28;20443;-59
2021/08/18 21:00:43;;;;;;;1999.90;999.90;;;;;;;20.73;54.50;100649.72;15791585;28;20521;-60
2021/08/18 21:08:16;;;;;;;1999.90;999.90;;;;;;;20.46;55.40;100644.44;15814759;28;20052;-60
2021/08/18 21:15:51;;;;;;;1999.90;999.90;;;;;;;20.51;55.54;100639.56;15819632;28;20468;-62
2021/08/18 21:23:23;;;;;;;1999.90;999.90;;;;;;;20.51;55.28;100636.72;15809738;28;20409;-60
2021/08/18 21:30:56;;;;;;;1999.90;999.90;;;;;;;20.49;56.29;100625.81;15819628;22;20044;-60
2021/08/18 21:38:29;;;;;;;1999.90;999.90;;;;;;;20.34;56.24;100622.13;15783964;28;20058;-60
2021/08/18 21:46:03;;;;;;;1999.90;999.90;;;;;;;20.55;55.66;100621.38;15845851;28;20465;-58
2021/08/18 21:53:36;;;;;;;1999.90;999.90;;;;;;;20.37;56.02;100629.00;15788112;28;20043;-59
2021/08/18 22:01:09;;;;;;;1999.90;999.90;;;;;;;20.38;55.39;100614.41;15864226;28;20043;-60
2021/08/18 22:08:42;;;;;;;1999.90;999.90;;;;;;;20.54;55.24;100621.78;15862892;28;20423;-60
2021/08/18 22:16:15;;;;;;;1999.90;999.90;;;;;;;20.40;56.09;100611.19;15864447;27;20051;-60
2021/08/18 22:23:47;;;;;;;1999.90;999.90;;;;;;;20.39;56.19;100604.72;15806788;28;20048;-58
2021/08/18 22:31:21;;;;;;;1999.90;999.90;;;;;;;20.54;56.07;100607.59;15826394;28;20063;-56
2021/08/18 22:38:53;;;;;;;1999.90;999.90;;;;;;;20.40;56.57;100620.50;15862779;28;20039;-59
2021/08/18 22:46:28;;;;;;;1999.90;999.90;;;;;;;20.27;57.46;100612.78;15862378;28;20041;-59
2021/08/18 22:54:00;;;;;;;1999.90;999.90;;;;;;;20.41;57.17;100612.81;15862366;28;20526;-60
2021/08/18 23:01:34;;;;;;;1999.90;999.90;;;;;;;20.47;57.15;100605.56;15842632;28;20112;-60
2021/08/18 23:09:06;;;;;;;1999.90;999.90;;;;;;;20.45;57.71;100608.81;15853042;28;20520;-60
2021/08/18 23:16:39;;;;;;;1999.90;999.90;;;;;;;20.58;57.61;100600.72;15823526;28;20047;-59
2021/08/18 23:24:12;;;;;;;1999.90;999.90;;;;;;;20.51;57.68;100597.88;15844907;28;20056;-59
2021/08/18 23:31:46;;;;;;;1999.90;999.90;;;;;;;20.16;59.37;100604.25;15839066;28;20067;-59
2021/08/18 23:39:20;;;;;;;1999.90;999.90;;;;;;;20.31;59.05;100607.94;15860933;28;20044;-59
2021/08/18 23:46:57;;;;;;;1999.90;999.90;;;;;;;20.33;59.12;100591.34;15841667;28;20058;-60
2021/08/18 23:54:30;;;;;;;1999.90;999.90;;;;;;;20.44;59.25;100592.22;15860315;28;20043;-59
